sensor_id;sensor_type;location;lat;lon;timestamp;pressure;altitude;pressure_sealevel;temperature;humidity
25658;BME280;13517;59.320;18.042;2023-11-19T00:01:16;101552.28;;;-4.22;100.00
25658;BME280;13517;59.320;18.042;2023-11-19T00:03:42;101504.56;;;-4.46;100.00
25658;BME280;13517;59.320;18.042;2023-11-19T00:06:07;101524.00;;;-4.33;100.00
25658;BME280;13517;59.320;18.042;2023-11-19T00:08:35;101537.34;;;-4.19;100.00
25658;BME280;13517;59.320;18.042;2023-11-19T00:11:00;101492.06;;;-4.61;100.00
25658;BME280;13517;59.320;18.042;2023-11-19T00:13:26;101510.66;;;-4.52;100.00
25658;BME280;13517;59.320;18.042;2023-11-19T00:15:51;101446.13;;;-4.88;100.00
25658;BME280;13517;59.320;18.042;2023-11-19T00:18:17;101500.00;;;-4.59;100.00
25658;BME280;13517;59.320;18.042;2023-11-19T00:20:43;101519.50;;;-4.45;100.00
25658;BME280;13517;59.320;18.042;2023-11-19T00:23:09;101530.06;;;-4.43;100.00
25658;BME280;13517;59.320;18.042;2023-11-19T00:25:35;101479.78;;;-4.63;100.00
25658;BME280;13517;59.320;18.042;2023-11-19T00:28:00;101486.91;;;-4.50;100.00
25658;BME280;13517;59.320;18.042;2023-11-19T00:30:26;101494.97;;;-4.39;100.00
25658;BME280;13517;59.320;18.042;2023-11-19T00:32:51;101498.59;;;-4.25;100.00
25658;BME280;13517;59.320;18.042;2023-11-19T00:35:16;101490.63;;;-4.31;100.00
25658;BME280;13517;59.320;18.042;2023-11-19T00:37:42;101505.63;;;-4.22;100.00
25658;BME280;13517;59.320;18.042;2023-11-19T00:40:08;101446.47;;;-4.52;100.00
25658;BME280;13517;59.320;18.042;2023-11-19T00:42:35;101511.00;;;-4.17;100.00
25658;BME280;13517;59.320;18.042;2023-11-19T00:45:00;101500.38;;;-4.20;100.00
25658;BME280;13517;59.320;18.042;2023-11-19T00:47:26;101442.13;;;-4.47;100.00
25658;BME280;13517;59.320;18.042;2023-11-19T00:49:52;101470.34;;;-4.38;100.00
25658;BME280;13517;59.320;18.042;2023-11-19T00:52:17;101459.75;;;-4.41;100.00
25658;BME280;13517;59.320;18.042;2023-11-19T00:54:44;101479.22;;;-4.27;100.00
25658;BME280;13517;59.320;18.042;2023-11-19T00:57:09;101448.19;;;-4.59;100.00
25658;BME280;13517;59.320;18.042;2023-11-19T00:59:35;101434.84;;;-4.74;100.00
25658;BME280;13517;59.320;18.042;2023-11-19T01:02:00;101446.34;;;-4.66;100.00
25658;BME280;13517;59.320;18.042;2023-11-19T01:04:33;101479.91;;;-4.48;100.00
25658;BME280;13517;59.320;18.042;2023-11-19T01:06:59;101420.63;;;-4.87;100.00
25658;BME280;13517;59.320;18.042;2023-11-19T01:09:24;101446.41;;;-4.58;100.00
25658;BME280;13517;59.320;18.042;2023-11-19T01:11:49;101468.50;;;-4.44;100.00
25658;BME280;13517;59.320;18.042;2023-11-19T01:14:15;101465.06;;;-4.38;100.00
25658;BME280;13517;59.320;18.042;2023-11-19T01:16:40;101427.06;;;-4.60;100.00
25658;BME280;13517;59.320;18.042;2023-11-19T01:19:05;101397.84;;;-4.82;100.00
25658;BME280;13517;59.320;18.042;2023-11-19T01:21:31;101412.84;;;-4.78;100.00
25658;BME280;13517;59.320;18.042;2023-11-19T01:23:59;101464.09;;;-4.45;100.00
25658;BME280;13517;59.320;18.042;2023-11-19T01:26:26;101424.38;;;-4.65;100.00
25658;BME280;13517;59.320;18.042;2023-11-19T01:28:51;101449.13;;;-4.47;100.00
25658;BME280;13517;59.320;18.042;2023-11-19T01:31:18;101431.56;;;-4.48;100.00
25658;BME280;13517;59.320;18.042;2023-11-19T01:33:43;101434.13;;;-4.55;100.00
25658;BME280;13517;59.320;18.042;2023-11-19T01:36:09;101418.28;;;-4.59;100.00
25658;BME280;13517;59.320;18.042;2023-11-19T01:38:35;101424.50;;;-4.53;100.00
25658;BME280;13517;59.320;18.042;2023-11-19T01:41:01;101417.44;;;-4.54;100.00
25658;BME280;13517;59.320;18.042;2023-11-19T01:43:38;101424.50;;;-4.53;100.00
25658;BME280;13517;59.320;18.042;2023-11-19T01:46:07;101417.41;;;-4.57;100.00
25658;BME280;13517;59.320;18.042;2023-11-19T01:48:36;101376.84;;;-4.74;100.00
25658;BME280;13517;59.320;18.042;2023-11-19T01:51:02;101447.50;;;-4.34;100.00
25658;BME280;13517;59.320;18.042;2023-11-19T01:53:29;101403.31;;;-4.62;100.00
25658;BME280;13517;59.320;18.042;2023-11-19T01:55:56;101406.00;;;-4.56;100.00
25658;BME280;13517;59.320;18.042;2023-11-19T01:58:22;101397.16;;;-4.61;100.00
25658;BME280;13517;59.320;18.042;2023-11-19T02:00:48;101387.41;;;-4.68;100.00
25658;BME280;13517;59.320;18.042;2023-11-19T02:03:14;101410.44;;;-4.48;100.00
25658;BME280;13517;59.320;18.042;2023-11-19T02:05:40;101372.47;;;-4.71;100.00
25658;BME280;13517;59.320;18.042;2023-11-19T02:08:06;101427.28;;;-4.34;100.00
25658;BME280;13517;59.320;18.042;2023-11-19T02:10:32;101414.06;;;-4.39;100.00
25658;BME280;13517;59.320;18.042;2023-11-19T02:12:58;101380.50;;;-4.60;100.00
25658;BME280;13517;59.320;18.042;2023-11-19T02:15:24;101421.00;;;-4.48;100.00
25658;BME280;13517;59.320;18.042;2023-11-19T02:17:50;101383.91;;;-4.70;100.00
25658;BME280;13517;59.320;18.042;2023-11-19T02:20:16;101409.53;;;-4.55;100.00
25658;BME280;13517;59.320;18.042;2023-11-19T02:22:42;101411.34;;;-4.48;100.00
25658;BME280;13517;59.320;18.042;2023-11-19T02:25:19;101374.25;;;-4.68;100.00
25658;BME280;13517;59.320;18.042;2023-11-19T02:27:53;101416.63;;;-4.45;100.00
25658;BME280;13517;59.320;18.042;2023-11-19T02:30:22;101410.50;;;-4.42;100.00
25658;BME280;13517;59.320;18.042;2023-11-19T02:32:52;101378.75;;;-4.55;100.00
25658;BME280;13517;59.320;18.042;2023-11-19T02:35:18;101388.47;;;-4.51;100.00
25658;BME280;13517;59.320;18.042;2023-11-19T02:37:43;101353.97;;;-4.75;100.00
25658;BME280;13517;59.320;18.042;2023-11-19T02:40:10;101360.00;;;-4.87;100.00
25658;BME280;13517;59.320;18.042;2023-11-19T02:42:35;101392.66;;;-4.74;100.00
25658;BME280;13517;59.320;18.042;2023-11-19T02:45:01;101343.06;;;-5.16;100.00
25658;BME280;13517;59.320;18.042;2023-11-19T02:47:27;101385.41;;;-4.99;100.00
25658;BME280;13517;59.320;18.042;2023-11-19T02:49:55;101333.16;;;-5.37;100.00
25658;BME280;13517;59.320;18.042;2023-11-19T02:52:21;101380.84;;;-5.11;100.00
25658;BME280;13517;59.320;18.042;2023-11-19T02:54:46;101337.63;;;-5.31;100.00
25658;BME280;13517;59.320;18.042;2023-11-19T02:57:11;101368.53;;;-5.15;100.00
25658;BME280;13517;59.320;18.042;2023-11-19T02:59:39;101350.03;;;-5.18;100.00
25658;BME280;13517;59.320;18.042;2023-11-19T03:02:07;101286.47;;;-5.55;100.00
25658;BME280;13517;59.320;18.042;2023-11-19T03:04:35;101304.97;;;-5.49;100.00
25658;BME280;13517;59.320;18.042;2023-11-19T03:07:00;101308.44;;;-5.52;100.00
25658;BME280;13517;59.320;18.042;2023-11-19T03:09:27;101319.94;;;-5.43;100.00
25658;BME280;13517;59.320;18.042;2023-11-19T03:11:53;101298.69;;;-5.59;100.00
25658;BME280;13517;59.320;18.042;2023-11-19T03:14:18;101292.53;;;-5.61;100.00
25658;BME280;13517;59.320;18.042;2023-11-19T03:16:47;101308.41;;;-5.53;100.00
25658;BME280;13517;59.320;18.042;2023-11-19T03:19:12;101279.25;;;-5.72;100.00
25658;BME280;13517;59.320;18.042;2023-11-19T03:21:37;101228.00;;;-6.07;100.00
25658;BME280;13517;59.320;18.042;2023-11-19T03:24:03;101289.78;;;-5.72;100.00
25658;BME280;13517;59.320;18.042;2023-11-19T03:26:28;101318.13;;;-5.46;100.00
25658;BME280;13517;59.320;18.042;2023-11-19T03:28:54;101296.09;;;-5.57;100.00
25658;BME280;13517;59.320;18.042;2023-11-19T03:31:22;101279.28;;;-5.69;100.00
25658;BME280;13517;59.320;18.042;2023-11-19T03:33:47;101272.25;;;-5.73;100.00
25658;BME280;13517;59.320;18.042;2023-11-19T03:36:13;101303.97;;;-5.59;100.00
25658;BME280;13517;59.320;18.042;2023-11-19T03:38:38;101250.91;;;-5.96;100.00
25658;BME280;13517;59.320;18.042;2023-11-19T03:41:13;101240.28;;;-6.07;100.00
25658;BME280;13517;59.320;18.042;2023-11-19T03:43:39;101296.75;;;-5.74;100.00
25658;BME280;13517;59.320;18.042;2023-11-19T03:46:21;101268.47;;;-5.95;100.00
25658;BME280;13517;59.320;18.042;2023-11-19T03:48:47;101226.97;;;-6.21;100.00
25658;BME280;13517;59.320;18.042;2023-11-19T03:51:13;101279.94;;;-5.89;100.00
25658;BME280;13517;59.320;18.042;2023-11-19T03:53:42;101263.16;;;-5.97;100.00
25658;BME280;13517;59.320;18.042;2023-11-19T03:56:08;101281.75;;;-5.81;100.00
25658;BME280;13517;59.320;18.042;2023-11-19T03:58:35;101281.84;;;-5.77;100.00
25658;BME280;13517;59.320;18.042;2023-11-19T04:01:01;101253.53;;;-5.96;100.00
25658;BME280;13517;59.320;18.042;2023-11-19T04:03:26;101246.59;;;-5.91;100.00
25658;BME280;13517;59.320;18.042;2023-11-19T04:05:52;101272.25;;;-5.70;100.00
25658;BME280;13517;59.320;18.042;2023-11-19T04:08:17;101216.66;;;-6.04;100.00
25658;BME280;13517;59.320;18.042;2023-11-19T04:10:42;101259.00;;;-5.78;100.00
25658;BME280;13517;59.320;18.042;2023-11-19T04:13:08;101236.13;;;-5.86;100.00
25658;BME280;13517;59.320;18.042;2023-11-19T04:15:33;101263.44;;;-5.74;100.00
25658;BME280;13517;59.320;18.042;2023-11-19T04:17:59;101232.53;;;-5.95;100.00
25658;BME280;13517;59.320;18.042;2023-11-19T04:20:24;101232.47;;;-5.98;100.00
25658;BME280;13517;59.320;18.042;2023-11-19T04:22:50;101218.34;;;-6.09;100.00
25658;BME280;13517;59.320;18.042;2023-11-19T04:25:16;101221.03;;;-6.03;100.00
25658;BME280;13517;59.320;18.042;2023-11-19T04:27:44;101251.06;;;-5.82;100.00
25658;BME280;13517;59.320;18.042;2023-11-19T04:30:09;101211.47;;;-5.93;100.00
25658;BME280;13517;59.320;18.042;2023-11-19T04:32:36;101221.19;;;-5.88;100.00
25658;BME280;13517;59.320;18.042;2023-11-19T04:35:01;101191.25;;;-5.96;100.00
25658;BME280;13517;59.320;18.042;2023-11-19T04:37:27;101244.19;;;-5.68;100.00
25658;BME280;13517;59.320;18.042;2023-11-19T04:39:52;101200.25;;;-5.78;100.00
25658;BME280;13517;59.320;18.042;2023-11-19T04:42:18;101202.91;;;-5.74;100.00
25658;BME280;13517;59.320;18.042;2023-11-19T04:44:43;101209.16;;;-5.61;100.00
25658;BME280;13517;59.320;18.042;2023-11-19T04:47:09;101168.66;;;-5.78;100.00
25658;BME280;13517;59.320;18.042;2023-11-19T04:49:40;101106.16;;;-6.06;100.00
25658;BME280;13517;59.320;18.042;2023-11-19T04:52:05;101171.50;;;-5.53;100.00
25658;BME280;13517;59.320;18.042;2023-11-19T04:54:30;101202.53;;;-5.18;100.00
25658;BME280;13517;59.320;18.042;2023-11-19T04:56:56;101207.88;;;-5.09;100.00
25658;BME280;13517;59.320;18.042;2023-11-19T04:59:21;101178.81;;;-5.18;100.00
25658;BME280;13517;59.320;18.042;2023-11-19T05:01:47;101211.47;;;-4.97;100.00
25658;BME280;13517;59.320;18.042;2023-11-19T05:04:13;101142.75;;;-5.25;100.00
25658;BME280;13517;59.320;18.042;2023-11-19T05:06:38;101199.31;;;-4.80;100.00
25658;BME280;13517;59.320;18.042;2023-11-19T05:09:04;101192.28;;;-4.78;100.00
25658;BME280;13517;59.320;18.042;2023-11-19T05:11:35;101168.50;;;-4.92;100.00
25658;BME280;13517;59.320;18.042;2023-11-19T05:14:04;101199.38;;;-4.66;100.00
25658;BME280;13517;59.320;18.042;2023-11-19T05:16:30;101203.81;;;-4.58;100.00
25658;BME280;13517;59.320;18.042;2023-11-19T05:18:56;101191.53;;;-4.53;100.00
25658;BME280;13517;59.320;18.042;2023-11-19T05:21:21;101135.13;;;-4.88;100.00
25658;BME280;13517;59.320;18.042;2023-11-19T05:23:47;101157.16;;;-4.72;100.00
25658;BME280;13517;59.320;18.042;2023-11-19T05:26:23;101181.00;;;-4.48;100.00
25658;BME280;13517;59.320;18.042;2023-11-19T05:28:49;101185.44;;;-4.41;100.00
25658;BME280;13517;59.320;18.042;2023-11-19T05:31:16;101180.16;;;-4.41;100.00
25658;BME280;13517;59.320;18.042;2023-11-19T05:33:42;101128.22;;;-4.64;100.00
25658;BME280;13517;59.320;18.042;2023-11-19T05:36:08;101177.59;;;-4.32;100.00
25658;BME280;13517;59.320;18.042;2023-11-19T05:38:36;101136.16;;;-4.55;100.00
25658;BME280;13517;59.320;18.042;2023-11-19T05:41:02;101174.94;;;-4.26;100.00
25658;BME280;13517;59.320;18.042;2023-11-19T05:43:28;101170.56;;;-4.20;100.00
25658;BME280;13517;59.320;18.042;2023-11-19T05:45:53;101135.34;;;-4.40;100.00
25658;BME280;13517;59.320;18.042;2023-11-19T05:48:18;101094.84;;;-4.56;100.00
25658;BME280;13517;59.320;18.042;2023-11-19T05:50:44;101129.22;;;-4.35;100.00
25658;BME280;13517;59.320;18.042;2023-11-19T05:53:10;101154.78;;;-4.13;100.00
25658;BME280;13517;59.320;18.042;2023-11-19T05:55:38;101151.25;;;-4.15;100.00
25658;BME280;13517;59.320;18.042;2023-11-19T05:58:11;101153.91;;;-4.07;100.00
25658;BME280;13517;59.320;18.042;2023-11-19T06:00:40;101136.31;;;-4.14;100.00
25658;BME280;13517;59.320;18.042;2023-11-19T06:03:09;101063.22;;;-4.48;100.00
25658;BME280;13517;59.320;18.042;2023-11-19T06:05:35;101064.97;;;-4.48;100.00
25658;BME280;13517;59.320;18.042;2023-11-19T06:08:00;101149.53;;;-3.99;100.00
25658;BME280;13517;59.320;18.042;2023-11-19T06:10:27;101148.66;;;-3.98;100.00
25658;BME280;13517;59.320;18.042;2023-11-19T06:12:59;101131.03;;;-4.05;100.00
25658;BME280;13517;59.320;18.042;2023-11-19T06:15:26;101132.81;;;-4.02;100.00
25658;BME280;13517;59.320;18.042;2023-11-19T06:17:52;101156.59;;;-3.85;100.00
25658;BME280;13517;59.320;18.042;2023-11-19T06:20:18;101149.56;;;-3.81;100.00
25658;BME280;13517;59.320;18.042;2023-11-19T06:22:45;101117.00;;;-3.94;100.00
25658;BME280;13517;59.320;18.042;2023-11-19T06:25:11;101093.22;;;-4.05;100.00
25658;BME280;13517;59.320;18.042;2023-11-19T06:27:36;101150.47;;;-3.72;100.00
25658;BME280;13517;59.320;18.042;2023-11-19T06:30:02;101101.13;;;-3.98;100.00
25658;BME280;13517;59.320;18.042;2023-11-19T06:32:27;101095.00;;;-3.98;100.00
25658;BME280;13517;59.320;18.042;2023-11-19T06:34:54;101124.91;;;-3.76;100.00
25658;BME280;13517;59.320;18.042;2023-11-19T06:37:19;101043.06;;;-4.19;100.00
25658;BME280;13517;59.320;18.042;2023-11-19T06:39:44;101134.63;;;-3.59;100.00
25658;BME280;13517;59.320;18.042;2023-11-19T06:42:10;101074.75;;;-3.94;100.00
25658;BME280;13517;59.320;18.042;2023-11-19T06:44:36;101063.31;;;-3.98;100.00
25658;BME280;13517;59.320;18.042;2023-11-19T06:47:01;101097.63;;;-3.93;100.00
25658;BME280;13517;59.320;18.042;2023-11-19T06:49:27;101094.13;;;-3.74;100.00
25658;BME280;13517;59.320;18.042;2023-11-19T06:51:52;101095.00;;;-3.76;100.00
25658;BME280;13517;59.320;18.042;2023-11-19T06:54:17;101076.53;;;-3.87;100.00
25658;BME280;13517;59.320;18.042;2023-11-19T06:56:43;101080.03;;;-3.91;100.00
25658;BME280;13517;59.320;18.042;2023-11-19T06:59:09;101058.94;;;-4.04;100.00
25658;BME280;13517;59.320;18.042;2023-11-19T07:01:35;101105.56;;;-3.72;100.00
25658;BME280;13517;59.320;18.042;2023-11-19T07:04:01;101062.44;;;-4.03;100.00
25658;BME280;13517;59.320;18.042;2023-11-19T07:06:33;101084.44;;;-3.87;100.00
25658;BME280;13517;59.320;18.042;2023-11-19T07:08:58;101078.28;;;-3.89;100.00
25658;BME280;13517;59.320;18.042;2023-11-19T07:11:24;101010.50;;;-4.34;100.00
25658;BME280;13517;59.320;18.042;2023-11-19T07:13:49;101075.63;;;-4.08;100.00
25658;BME280;13517;59.320;18.042;2023-11-19T07:16:15;101058.91;;;-4.13;100.00
25658;BME280;13517;59.320;18.042;2023-11-19T07:18:40;101070.34;;;-4.10;100.00
25658;BME280;13517;59.320;18.042;2023-11-19T07:21:09;101104.66;;;-3.99;100.00
25658;BME280;13517;59.320;18.042;2023-11-19T07:23:36;101107.31;;;-3.99;100.00
25658;BME280;13517;59.320;18.042;2023-11-19T07:26:01;101105.53;;;-4.00;100.00
25658;BME280;13517;59.320;18.042;2023-11-19T07:28:29;101042.16;;;-4.37;100.00
25658;BME280;13517;59.320;18.042;2023-11-19T07:30:55;101031.59;;;-4.43;100.00
25658;BME280;13517;59.320;18.042;2023-11-19T07:33:21;101109.06;;;-3.94;100.00
25658;BME280;13517;59.320;18.042;2023-11-19T07:35:46;101065.94;;;-4.15;100.00
25658;BME280;13517;59.320;18.042;2023-11-19T07:38:12;101099.41;;;-3.89;100.00
25658;BME280;13517;59.320;18.042;2023-11-19T07:40:37;101067.72;;;-4.08;100.00
25658;BME280;13517;59.320;18.042;2023-11-19T07:43:03;101067.69;;;-4.05;100.00
25658;BME280;13517;59.320;18.042;2023-11-19T07:45:28;101095.00;;;-3.78;100.00
25658;BME280;13517;59.320;18.042;2023-11-19T07:47:54;101051.03;;;-3.93;100.00
25658;BME280;13517;59.320;18.042;2023-11-19T07:50:19;101090.59;;;-3.70;100.00
25658;BME280;13517;59.320;18.042;2023-11-19T07:52:45;101009.66;;;-4.14;100.00
25658;BME280;13517;59.320;18.042;2023-11-19T07:55:11;101049.25;;;-3.97;100.00
25658;BME280;13517;59.320;18.042;2023-11-19T07:57:37;101053.66;;;-4.04;100.00
25658;BME280;13517;59.320;18.042;2023-11-19T08:00:03;101058.91;;;-3.96;100.00
25658;BME280;13517;59.320;18.042;2023-11-19T08:02:28;101051.00;;;-4.05;100.00
25658;BME280;13517;59.320;18.042;2023-11-19T08:04:54;101091.47;;;-3.91;100.00
25658;BME280;13517;59.320;18.042;2023-11-19T08:07:23;101092.34;;;-3.89;100.00
25658;BME280;13517;59.320;18.042;2023-11-19T08:09:48;101066.84;;;-4.10;100.00
25658;BME280;13517;59.320;18.042;2023-11-19T08:12:14;101043.06;;;-4.16;100.00
25658;BME280;13517;59.320;18.042;2023-11-19T08:14:41;101074.75;;;-3.98;100.00
25658;BME280;13517;59.320;18.042;2023-11-19T08:17:06;101084.47;;;-3.81;100.00
25658;BME280;13517;59.320;18.042;2023-11-19T08:19:31;101104.69;;;-3.77;100.00
25658;BME280;13517;59.320;18.042;2023-11-19T08:21:57;101094.13;;;-3.64;100.00
25658;BME280;13517;59.320;18.042;2023-11-19T08:24:23;101080.06;;;-3.65;100.00
25658;BME280;13517;59.320;18.042;2023-11-19T08:26:48;101037.81;;;-3.73;100.00
25658;BME280;13517;59.320;18.042;2023-11-19T08:29:14;101060.69;;;-3.59;100.00
25658;BME280;13517;59.320;18.042;2023-11-19T08:31:39;101058.91;;;-3.51;100.00
25658;BME280;13517;59.320;18.042;2023-11-19T08:34:05;101050.09;;;-3.56;100.00
25658;BME280;13517;59.320;18.042;2023-11-19T08:36:34;101058.03;;;-3.44;100.00
25658;BME280;13517;59.320;18.042;2023-11-19T08:38:59;101059.78;;;-3.47;100.00
25658;BME280;13517;59.320;18.042;2023-11-19T08:41:24;101047.47;;;-3.48;100.00
25658;BME280;13517;59.320;18.042;2023-11-19T08:43:50;101034.25;;;-3.51;100.00
25658;BME280;13517;59.320;18.042;2023-11-19T08:46:17;101078.25;;;-3.30;100.00
25658;BME280;13517;59.320;18.042;2023-11-19T08:48:42;101068.56;;;-3.28;100.00
25658;BME280;13517;59.320;18.042;2023-11-19T08:51:08;101079.13;;;-3.28;100.00
25658;BME280;13517;59.320;18.042;2023-11-19T08:53:33;101018.44;;;-3.61;100.00
25658;BME280;13517;59.320;18.042;2023-11-19T08:55:59;101070.31;;;-3.21;100.00
25658;BME280;13517;59.320;18.042;2023-11-19T08:58:25;100958.59;;;-3.79;100.00
25658;BME280;13517;59.320;18.042;2023-11-19T09:00:51;101032.47;;;-3.28;100.00
25658;BME280;13517;59.320;18.042;2023-11-19T09:03:16;101011.34;;;-3.32;100.00
25658;BME280;13517;59.320;18.042;2023-11-19T09:05:41;101021.91;;;-3.26;100.00
25658;BME280;13517;59.320;18.042;2023-11-19T09:08:07;101027.13;;;-3.20;100.00
25658;BME280;13517;59.320;18.042;2023-11-19T09:10:32;101060.53;;;-2.95;100.00
25658;BME280;13517;59.320;18.042;2023-11-19T09:12:58;101038.53;;;-2.97;100.00
25658;BME280;13517;59.320;18.042;2023-11-19T09:15:23;101057.88;;;-2.83;100.00
25658;BME280;13517;59.320;18.042;2023-11-19T09:17:49;101050.78;;;-2.81;100.00
25658;BME280;13517;59.320;18.042;2023-11-19T09:20:14;101032.34;;;-2.92;100.00
25658;BME280;13517;59.320;18.042;2023-11-19T09:22:41;101005.00;;;-2.91;100.00
25658;BME280;13517;59.320;18.042;2023-11-19T09:25:07;101041.00;;;-2.58;100.00
25658;BME280;13517;59.320;18.042;2023-11-19T09:27:32;100998.78;;;-2.77;100.00
25658;BME280;13517;59.320;18.042;2023-11-19T09:29:58;101027.75;;;-2.51;100.00
25658;BME280;13517;59.320;18.042;2023-11-19T09:32:24;101011.03;;;-2.54;100.00
25658;BME280;13517;59.320;18.042;2023-11-19T09:34:49;101003.09;;;-2.59;100.00
25658;BME280;13517;59.320;18.042;2023-11-19T09:37:15;100995.16;;;-2.57;100.00
25658;BME280;13517;59.320;18.042;2023-11-19T09:39:40;100987.28;;;-2.68;100.00
25658;BME280;13517;59.320;18.042;2023-11-19T09:42:09;100970.69;;;-3.00;100.00
25658;BME280;13517;59.320;18.042;2023-11-19T09:44:36;101022.50;;;-2.58;100.00
25658;BME280;13517;59.320;18.042;2023-11-19T09:47:03;101014.44;;;-2.37;100.00
25658;BME280;13517;59.320;18.042;2023-11-19T09:49:29;100954.72;;;-2.78;100.00
25658;BME280;13517;59.320;18.042;2023-11-19T09:51:55;100992.50;;;-2.54;100.00
25658;BME280;13517;59.320;18.042;2023-11-19T09:54:21;100953.91;;;-2.90;100.00
25658;BME280;13517;59.320;18.042;2023-11-19T09:56:47;100889.78;;;-3.29;100.00
25658;BME280;13517;59.320;18.042;2023-11-19T09:59:13;101000.44;;;-2.56;100.00
25658;BME280;13517;59.320;18.042;2023-11-19T10:01:38;100944.25;;;-3.02;100.00
25658;BME280;13517;59.320;18.042;2023-11-19T10:04:06;100938.97;;;-2.97;100.00
25658;BME280;13517;59.320;18.042;2023-11-19T10:06:32;100991.72;;;-2.70;100.00
25658;BME280;13517;59.320;18.042;2023-11-19T10:08:58;100991.72;;;-2.72;100.00
25658;BME280;13517;59.320;18.042;2023-11-19T10:11:24;100947.72;;;-2.89;100.00
25658;BME280;13517;59.320;18.042;2023-11-19T10:13:52;100944.19;;;-2.91;100.00
25658;BME280;13517;59.320;18.042;2023-11-19T10:16:18;100923.94;;;-2.92;100.00
25658;BME280;13517;59.320;18.042;2023-11-19T10:18:48;100977.50;;;-2.55;100.00
25658;BME280;13517;59.320;18.042;2023-11-19T10:21:14;100961.56;;;-2.46;100.00
25658;BME280;13517;59.320;18.042;2023-11-19T10:23:52;100973.03;;;-2.44;100.00
25658;BME280;13517;59.320;18.042;2023-11-19T10:26:19;100908.00;;;-2.81;100.00
25658;BME280;13517;59.320;18.042;2023-11-19T10:28:46;100962.44;;;-2.41;100.00
25658;BME280;13517;59.320;18.042;2023-11-19T10:31:16;100905.38;;;-2.76;100.00
25658;BME280;13517;59.320;18.042;2023-11-19T10:33:42;100933.44;;;-2.60;100.00
25658;BME280;13517;59.320;18.042;2023-11-19T10:36:10;100898.38;;;-2.83;100.00
25658;BME280;13517;59.320;18.042;2023-11-19T10:38:37;100876.34;;;-2.92;100.00
25658;BME280;13517;59.320;18.042;2023-11-19T10:41:03;100941.38;;;-2.60;100.00
25658;BME280;13517;59.320;18.042;2023-11-19T10:43:29;100894.84;;;-2.92;100.00
25658;BME280;13517;59.320;18.042;2023-11-19T10:46:09;100919.50;;;-2.83;100.00
25658;BME280;13517;59.320;18.042;2023-11-19T10:48:34;100944.06;;;-2.67;100.00
25658;BME280;13517;59.320;18.042;2023-11-19T10:51:01;100909.81;;;-2.86;100.00
25658;BME280;13517;59.320;18.042;2023-11-19T10:53:30;100912.47;;;-2.86;100.00
25658;BME280;13517;59.320;18.042;2023-11-19T10:55:56;100888.75;;;-3.00;100.00
25658;BME280;13517;59.320;18.042;2023-11-19T10:58:24;100901.88;;;-2.84;100.00
25658;BME280;13517;59.320;18.042;2023-11-19T11:00:57;100934.38;;;-2.65;100.00
25658;BME280;13517;59.320;18.042;2023-11-19T11:03:29;100937.91;;;-2.69;100.00
25658;BME280;13517;59.320;18.042;2023-11-19T11:05:56;100902.75;;;-2.84;100.00
25658;BME280;13517;59.320;18.042;2023-11-19T11:08:21;100914.22;;;-2.88;100.00
25658;BME280;13517;59.320;18.042;2023-11-19T11:10:57;100895.75;;;-2.94;100.00
25658;BME280;13517;59.320;18.042;2023-11-19T11:13:26;100885.25;;;-3.02;100.00
25658;BME280;13517;59.320;18.042;2023-11-19T11:15:56;100896.69;;;-3.02;100.00
25658;BME280;13517;59.320;18.042;2023-11-19T11:18:25;100902.81;;;-2.95;100.00
25658;BME280;13517;59.320;18.042;2023-11-19T11:29:31;100903.69;;;-2.93;100.00
25658;BME280;13517;59.320;18.042;2023-11-19T11:32:28;100909.00;;;-2.96;100.00
25658;BME280;13517;59.320;18.042;2023-11-19T11:35:17;100908.97;;;-2.93;100.00
25658;BME280;13517;59.320;18.042;2023-11-19T11:37:55;100894.06;;;-3.03;100.00
25658;BME280;13517;59.320;18.042;2023-11-19T11:40:23;100882.59;;;-3.05;100.00
25658;BME280;13517;59.320;18.042;2023-11-19T11:42:49;100890.53;;;-3.04;100.00
25658;BME280;13517;59.320;18.042;2023-11-19T11:45:17;100894.88;;;-2.95;100.00
25658;BME280;13517;59.320;18.042;2023-11-19T11:50:15;100901.97;;;-3.02;100.00
25658;BME280;13517;59.320;18.042;2023-11-19T11:55:28;100842.28;;;-3.38;100.00
25658;BME280;13517;59.320;18.042;2023-11-19T11:57:59;100891.41;;;-3.06;100.00
25658;BME280;13517;59.320;18.042;2023-11-19T12:00:30;100827.31;;;-3.43;100.00
25658;BME280;13517;59.320;18.042;2023-11-19T12:02:56;100871.97;;;-2.93;100.00
25658;BME280;13517;59.320;18.042;2023-11-19T12:05:22;100900.00;;;-2.70;100.00
25658;BME280;13517;59.320;18.042;2023-11-19T12:08:00;100893.03;;;-2.80;100.00
25658;BME280;13517;59.320;18.042;2023-11-19T12:10:29;100800.84;;;-3.33;100.00
25658;BME280;13517;59.320;18.042;2023-11-19T12:13:00;100803.56;;;-3.39;100.00
25658;BME280;13517;59.320;18.042;2023-11-19T12:15:26;100821.84;;;-3.07;100.00
25658;BME280;13517;59.320;18.042;2023-11-19T12:17:56;100831.53;;;-3.09;100.00
25658;BME280;13517;59.320;18.042;2023-11-19T12:20:23;100885.16;;;-2.85;100.00
25658;BME280;13517;59.320;18.042;2023-11-19T12:22:49;100886.94;;;-2.92;100.00
25658;BME280;13517;59.320;18.042;2023-11-19T12:25:16;100821.94;;;-3.25;100.00
25658;BME280;13517;59.320;18.042;2023-11-19T12:27:44;100775.47;;;-3.59;100.00
25658;BME280;13517;59.320;18.042;2023-11-19T12:30:10;100833.28;;;-3.06;100.00
25658;BME280;13517;59.320;18.042;2023-11-19T12:35:19;100869.03;;;-2.54;100.00
25658;BME280;13517;59.320;18.042;2023-11-19T13:06:20;100827.97;;;-2.01;100.00
25658;BME280;13517;59.320;18.042;2023-11-19T13:08:49;100860.56;;;-1.95;100.00
25658;BME280;13517;59.320;18.042;2023-11-19T13:11:46;100767.44;;;-2.36;100.00
25658;BME280;13517;59.320;18.042;2023-11-19T13:17:24;100871.50;;;-2.32;100.00